createdAt,value
2022-08-20T00:02:19.069Z,96408.63
2022-08-20T00:04:48.695Z,96409.56
2022-08-20T00:07:16.666Z,96411.66
2022-08-20T00:09:44.358Z,96410.59
2022-08-20T00:12:13.832Z,96417.84
2022-08-20T00:14:41.570Z,96416.13
2022-08-20T00:17:11.376Z,96414.91
2022-08-20T00:19:39.208Z,96417.84
2022-08-20T00:22:09.237Z,96413.16
2022-08-20T00:24:37.174Z,96414.72
2022-08-20T00:27:05.309Z,96419.53
2022-08-20T00:29:37.079Z,96415.44
2022-08-20T00:32:05.153Z,96416.13
2022-08-20T00:34:33.143Z,96413.72
2022-08-20T00:37:02.044Z,96415.97
2022-08-20T00:39:29.931Z,96414.53
2022-08-20T00:42:00.733Z,96410.88
2022-08-20T00:44:32.453Z,96417.50
2022-08-20T00:47:01.981Z,96420.69
2022-08-20T00:49:30.564Z,96414.28
2022-08-20T00:52:15.369Z,96419.47
2022-08-20T00:54:44.371Z,96419.41
2022-08-20T00:57:13.323Z,96431.16
2022-08-20T00:59:41.556Z,96427.09
2022-08-20T01:02:11.554Z,96427.22
2022-08-20T01:04:39.390Z,96434.78
2022-08-20T01:07:07.511Z,96435.00
2022-08-20T01:09:57.972Z,96435.53
2022-08-20T01:12:25.426Z,96434.69
2022-08-20T01:14:53.357Z,96422.03
2022-08-20T01:17:23.783Z,96432.84
2022-08-20T01:19:52.977Z,96430.88
2022-08-20T01:22:40.153Z,96435.63
2022-08-20T01:25:11.833Z,96442.63
2022-08-20T01:27:42.928Z,96434.09
2022-08-20T01:30:11.350Z,96433.34
2022-08-20T01:32:39.289Z,96443.31
2022-08-20T01:35:07.418Z,96435.81
2022-08-20T01:37:35.409Z,96445.53
2022-08-20T01:40:03.739Z,96445.06
2022-08-20T01:42:37.573Z,96447.66
2022-08-20T01:45:27.993Z,96445.50
2022-08-20T01:47:58.514Z,96445.31
2022-08-20T01:50:27.794Z,96449.25
2022-08-20T01:52:56.800Z,96451.97
2022-08-20T01:55:24.732Z,96455.34
2022-08-20T01:57:53.613Z,96454.09
2022-08-20T02:00:22.446Z,96457.97
2022-08-20T02:02:54.321Z,96455.25
2022-08-20T02:05:22.361Z,96453.13
2022-08-20T02:07:50.445Z,96465.09
2022-08-20T02:10:21.386Z,96452.78
2022-08-20T02:12:54.553Z,96459.00
2022-08-20T02:15:34.659Z,96451.13
2022-08-20T02:18:08.038Z,96457.75
2022-08-20T02:20:36.446Z,96461.47
2022-08-20T02:23:06.057Z,96462.38
2022-08-20T02:25:34.645Z,96454.38
2022-08-20T02:28:04.444Z,96464.75
2022-08-20T02:30:34.404Z,96459.03
2022-08-20T02:33:02.661Z,96457.16
2022-08-20T02:35:32.574Z,96454.84
2022-08-20T02:38:01.808Z,96461.63
2022-08-20T02:40:30.819Z,96462.84
2022-08-20T02:42:59.005Z,96462.66
2022-08-20T02:45:29.466Z,96465.22
2022-08-20T02:47:59.425Z,96467.13
2022-08-20T02:50:27.956Z,96458.59
2022-08-20T02:52:59.029Z,96460.34
2022-08-20T02:55:29.598Z,96468.44
2022-08-20T02:57:59.524Z,96462.94
2022-08-20T03:00:29.391Z,96463.09
2022-08-20T03:03:02.447Z,96457.59
2022-08-20T03:05:31.979Z,96460.97
2022-08-20T03:08:03.637Z,96465.75
2022-08-20T03:10:35.282Z,96454.00
2022-08-20T03:13:03.269Z,96453.22
2022-08-20T03:15:31.852Z,96458.94
2022-08-20T03:18:04.973Z,96458.53
2022-08-20T03:20:35.500Z,96450.81
2022-08-20T03:23:04.660Z,96459.13
2022-08-20T03:25:33.248Z,96455.09
2022-08-20T03:28:01.206Z,96453.22
2022-08-20T03:30:29.703Z,96451.97
2022-08-20T03:32:57.758Z,96444.16
2022-08-20T03:35:26.201Z,96454.19
2022-08-20T03:37:56.435Z,96445.59
2022-08-20T03:40:26.801Z,96442.72
2022-08-20T03:42:54.857Z,96445.06
2022-08-20T03:45:23.350Z,96440.78
2022-08-20T03:47:51.779Z,96440.06
2022-08-20T03:50:23.233Z,96443.88
2022-08-20T03:52:51.620Z,96442.72
2022-08-20T03:55:21.764Z,96442.69
2022-08-20T03:57:52.137Z,96453.44
2022-08-20T04:00:21.769Z,96454.19
2022-08-20T04:02:54.883Z,96448.69
2022-08-20T04:05:24.665Z,96454.31
2022-08-20T04:07:56.058Z,96451.63
2022-08-20T04:10:27.310Z,96455.38
2022-08-20T04:12:56.768Z,96456.69
2022-08-20T04:15:25.520Z,96459.50
2022-08-20T04:17:56.855Z,96456.34
2022-08-20T04:20:26.184Z,96463.44
2022-08-20T04:22:59.289Z,96467.44
2022-08-20T04:25:28.586Z,96465.25
2022-08-20T04:27:59.172Z,96479.72
2022-08-20T04:30:27.085Z,96470.47
2022-08-20T04:32:55.598Z,96468.69
2022-08-20T04:35:24.819Z,96473.66
2022-08-20T04:38:05.018Z,96469.56
2022-08-20T04:40:55.305Z,96476.53
2022-08-20T04:43:26.496Z,96472.13
2022-08-20T04:45:54.778Z,96479.19
2022-08-20T04:48:24.479Z,96475.91
2022-08-20T04:50:54.040Z,96476.09
2022-08-20T04:53:25.846Z,96473.25
2022-08-20T04:55:57.115Z,96475.66
2022-08-20T04:58:30.566Z,96473.31
2022-08-20T05:01:01.087Z,96484.84
2022-08-20T05:03:29.372Z,96481.38
2022-08-20T05:06:02.547Z,96488.97
2022-08-20T05:08:31.029Z,96485.06
2022-08-20T05:11:24.973Z,96482.53
2022-08-20T05:13:50.434Z,96495.94
2022-08-20T05:16:18.966Z,96498.78
2022-08-20T05:18:51.664Z,96493.88
2022-08-20T05:21:28.057Z,96502.22
2022-08-20T05:23:56.165Z,96502.28
2022-08-20T05:26:26.407Z,96501.09
2022-08-20T05:28:59.666Z,96504.69
2022-08-20T05:31:32.693Z,96503.16
2022-08-20T05:34:05.481Z,96500.94
2022-08-20T05:36:33.118Z,96520.75
2022-08-20T05:39:00.953Z,96517.44
2022-08-20T05:41:30.866Z,96514.63
2022-08-20T05:44:03.748Z,96516.47
2022-08-20T05:46:32.351Z,96506.13
2022-08-20T05:49:01.996Z,96508.50
2022-08-20T05:51:29.944Z,96512.28
2022-08-20T05:53:59.237Z,96505.69
2022-08-20T05:56:31.276Z,96505.31
2022-08-20T05:59:04.925Z,96509.97
2022-08-20T06:01:33.475Z,96512.03
2022-08-20T06:04:22.526Z,96502.72
2022-08-20T06:06:51.347Z,96507.91
2022-08-20T06:09:30.544Z,96495.63
2022-08-20T06:12:06.487Z,96500.44
2022-08-20T06:14:44.585Z,96517.13
2022-08-20T06:17:13.711Z,96523.16
2022-08-20T06:19:44.086Z,96523.44
2022-08-20T06:22:19.732Z,96520.59
2022-08-20T06:24:55.201Z,96519.69
2022-08-20T06:27:22.965Z,96518.63
2022-08-20T06:29:52.265Z,96516.13
2022-08-20T06:32:32.078Z,96517.34
2022-08-20T06:35:02.131Z,96523.63
2022-08-20T06:37:32.155Z,96523.47
2022-08-20T06:40:01.477Z,96523.97
2022-08-20T06:42:29.702Z,96524.94
2022-08-20T06:45:00.550Z,96521.97
2022-08-20T06:47:28.214Z,96531.25
2022-08-20T06:49:56.521Z,96530.78
2022-08-20T06:52:52.461Z,96534.78
2022-08-20T06:55:15.113Z,96537.81
2022-08-20T06:57:43.559Z,96529.59
2022-08-20T07:00:14.821Z,96526.94
2022-08-20T07:02:45.523Z,96524.94
2022-08-20T07:05:13.199Z,96528.41
2022-08-20T07:07:41.265Z,96529.66
2022-08-20T07:10:10.604Z,96531.34
2022-08-20T07:12:38.631Z,96536.75
2022-08-20T07:15:07.327Z,96534.97
2022-08-20T07:17:37.126Z,96539.91
2022-08-20T07:20:05.330Z,96539.25
2022-08-20T07:22:35.905Z,96541.97
2022-08-20T07:25:04.756Z,96540.63
2022-08-20T07:27:35.534Z,96534.50
2022-08-20T07:30:20.665Z,96540.16
2022-08-20T07:32:50.247Z,96536.97
2022-08-20T07:35:19.072Z,96538.72
2022-08-20T07:37:48.825Z,96542.47
2022-08-20T07:40:19.502Z,96542.44
2022-08-20T07:42:51.326Z,96547.06
2022-08-20T07:45:19.587Z,96552.47
2022-08-20T07:47:47.973Z,96554.75
2022-08-20T07:50:19.193Z,96553.25
2022-08-20T07:52:47.031Z,96560.03
2022-08-20T07:55:16.520Z,96566.78
2022-08-20T07:57:47.213Z,96561.41
2022-08-20T08:00:18.661Z,96557.00
2022-08-20T08:02:46.681Z,96558.97
2022-08-20T08:05:15.358Z,96559.72
2022-08-20T08:07:44.708Z,96558.06
2022-08-20T08:10:16.555Z,96562.19
2022-08-20T08:12:45.092Z,96554.00
2022-08-20T08:15:14.264Z,96568.16
2022-08-20T08:17:42.070Z,96563.72
2022-08-20T08:20:12.260Z,96561.63
2022-08-20T08:22:44.358Z,96550.16
2022-08-20T08:25:13.994Z,96557.25
2022-08-20T08:27:42.120Z,96558.44
2022-08-20T08:30:10.741Z,96550.81
2022-08-20T08:32:58.638Z,96549.78
2022-08-20T08:35:26.759Z,96557.91
2022-08-20T08:37:57.291Z,96562.13
2022-08-20T08:40:26.761Z,96554.81
2022-08-20T08:42:58.150Z,96552.63
2022-08-20T08:45:27.184Z,96565.59
2022-08-20T08:47:57.009Z,96561.34
2022-08-20T08:50:50.013Z,96564.91
2022-08-20T08:53:17.375Z,96567.34
2022-08-20T08:55:46.753Z,96569.56
2022-08-20T08:58:16.588Z,96571.31
2022-08-20T09:00:57.639Z,96572.47
2022-08-20T09:03:33.506Z,96569.75
2022-08-20T09:06:01.893Z,96568.16
2022-08-20T09:08:31.162Z,96560.63
2022-08-20T09:11:08.523Z,96557.34
2022-08-20T09:13:36.370Z,96557.59
2022-08-20T09:16:13.430Z,96558.69
2022-08-20T09:18:44.062Z,96549.22
2022-08-20T09:21:11.773Z,96550.06
2022-08-20T09:23:39.493Z,96557.16
2022-08-20T09:26:08.799Z,96572.13
2022-08-20T09:28:38.343Z,96567.13
2022-08-20T09:31:06.992Z,96552.41
2022-08-20T09:33:34.742Z,96560.69
2022-08-20T09:36:29.139Z,96562.09
2022-08-20T09:39:00.455Z,96559.56
2022-08-20T09:41:30.349Z,96564.44
2022-08-20T09:44:01.948Z,96568.31
2022-08-20T09:46:29.986Z,96568.66
2022-08-20T09:48:58.068Z,96565.00
2022-08-20T09:51:30.675Z,96551.22
2022-08-20T09:54:00.384Z,96558.34
2022-08-20T09:56:33.833Z,96563.19
2022-08-20T09:59:03.032Z,96555.75
2022-08-20T10:01:30.938Z,96564.66
2022-08-20T10:04:01.228Z,96568.41
2022-08-20T10:06:28.900Z,96571.72
2022-08-20T10:08:56.766Z,96576.38
2022-08-20T10:11:24.458Z,96577.25
2022-08-20T10:13:54.740Z,96590.53
2022-08-20T10:16:40.162Z,96596.06
2022-08-20T10:19:07.836Z,96591.63
2022-08-20T10:21:39.074Z,96596.06
2022-08-20T10:24:16.610Z,96592.13
2022-08-20T10:26:45.998Z,96596.50
2022-08-20T10:29:15.347Z,96593.03
2022-08-20T10:31:43.059Z,96592.56
2022-08-20T10:34:11.156Z,96584.19
2022-08-20T10:36:38.909Z,96581.53
2022-08-20T10:39:06.693Z,96577.03
2022-08-20T10:41:38.371Z,96576.91
2022-08-20T10:44:06.768Z,96572.66
2022-08-20T10:46:36.479Z,96569.88
2022-08-20T10:49:04.901Z,96570.72
2022-08-20T10:51:33.093Z,96569.31
2022-08-20T10:54:06.335Z,96566.22
2022-08-20T10:56:40.066Z,96563.06
2022-08-20T10:59:22.630Z,96565.16
2022-08-20T11:01:52.059Z,96563.84
2022-08-20T11:04:19.762Z,96557.38
2022-08-20T11:06:47.725Z,96554.75
2022-08-20T11:09:15.489Z,96552.47
2022-08-20T11:11:43.084Z,96553.66
2022-08-20T11:14:10.846Z,96561.59
2022-08-20T11:16:39.492Z,96556.75
2022-08-20T11:19:08.459Z,96557.34
2022-08-20T11:21:37.710Z,96551.03
2022-08-20T11:24:05.457Z,96556.22
2022-08-20T11:26:33.318Z,96553.81
2022-08-20T11:29:01.208Z,96555.88
2022-08-20T11:31:30.360Z,96563.38
2022-08-20T11:34:01.871Z,96553.72
2022-08-20T11:36:31.468Z,96555.28
2022-08-20T11:38:59.120Z,96555.97
2022-08-20T11:41:26.756Z,96551.41
2022-08-20T11:44:17.568Z,96559.09
2022-08-20T11:46:42.872Z,96553.84
2022-08-20T11:49:13.419Z,96556.28
2022-08-20T11:51:49.596Z,96551.38
2022-08-20T11:54:18.013Z,96557.09
2022-08-20T11:56:46.192Z,96551.69
2022-08-20T11:59:14.666Z,96547.28
2022-08-20T12:01:46.681Z,96547.28
2022-08-20T12:04:33.540Z,96556.66
2022-08-20T12:07:11.328Z,96552.34
2022-08-20T12:09:43.164Z,96565.63
2022-08-20T12:12:19.523Z,96556.19
2022-08-20T12:14:50.206Z,96560.47
2022-08-20T12:17:19.849Z,96563.63
2022-08-20T12:19:47.529Z,96567.22
2022-08-20T12:22:24.783Z,96565.88
2022-08-20T12:24:53.528Z,96559.13
2022-08-20T12:27:22.164Z,96550.81
2022-08-20T12:29:53.622Z,96579.03
2022-08-20T12:32:21.621Z,96559.34
2022-08-20T12:34:49.657Z,96556.16
2022-08-20T12:37:19.680Z,96562.94
2022-08-20T12:39:49.135Z,96564.63
2022-08-20T12:42:19.716Z,96560.59
2022-08-20T12:44:47.310Z,96553.81
2022-08-20T12:47:15.444Z,96551.00
2022-08-20T12:49:45.462Z,96548.94
2022-08-20T12:52:13.776Z,96545.13
2022-08-20T12:54:46.274Z,96544.88
2022-08-20T12:57:17.248Z,96543.25
2022-08-20T12:59:44.918Z,96548.81
2022-08-20T13:02:18.844Z,96541.28
2022-08-20T13:04:46.758Z,96547.13
2022-08-20T13:07:17.436Z,96549.38
2022-08-20T13:09:47.071Z,96552.84
2022-08-20T13:12:17.766Z,96546.34
2022-08-20T13:14:47.673Z,96539.91
2022-08-20T13:17:17.591Z,96528.69
2022-08-20T13:19:49.143Z,96528.03
2022-08-20T13:22:17.338Z,96532.00
2022-08-20T13:24:49.586Z,96544.06
2022-08-20T13:27:18.308Z,96524.44
2022-08-20T13:29:47.313Z,96528.94
2022-08-20T13:32:17.203Z,96530.50
2022-08-20T13:34:48.625Z,96535.84
2022-08-20T13:37:19.025Z,96525.88
2022-08-20T13:39:50.465Z,96518.31
2022-08-20T13:42:20.720Z,96524.59
2022-08-20T13:44:49.869Z,96512.03
2022-08-20T13:47:18.714Z,96511.28
2022-08-20T13:49:49.783Z,96518.97
2022-08-20T13:52:17.518Z,96515.72
2022-08-20T13:54:45.492Z,96513.00
2022-08-20T13:57:17.237Z,96506.91
2022-08-20T13:59:45.447Z,96513.00
2022-08-20T14:02:13.721Z,96510.50
2022-08-20T14:04:42.000Z,96295.78
2022-08-20T14:07:13.169Z,96514.50
2022-08-20T14:09:41.075Z,96515.22
2022-08-20T14:12:09.044Z,96514.28
2022-08-20T14:14:38.448Z,96517.78
2022-08-20T14:17:16.294Z,96523.81
2022-08-20T14:19:44.445Z,96513.53
2022-08-20T14:22:12.873Z,96517.06
2022-08-20T14:24:41.853Z,96505.91
2022-08-20T14:27:09.555Z,96505.38
2022-08-20T14:29:39.545Z,96506.84
2022-08-20T14:32:07.575Z,96510.28
2022-08-20T14:34:37.795Z,96500.72
2022-08-20T14:37:12.105Z,96501.59
2022-08-20T14:39:39.875Z,96512.22
2022-08-20T14:42:10.042Z,96507.19
2022-08-20T14:44:39.325Z,96496.72
2022-08-20T14:47:15.615Z,96500.53
2022-08-20T14:49:43.702Z,96497.03
2022-08-20T14:52:11.636Z,96489.38
2022-08-20T14:54:39.609Z,96492.66
2022-08-20T14:57:13.351Z,96491.72
2022-08-20T14:59:43.351Z,96487.31
2022-08-20T15:02:13.798Z,96485.22
2022-08-20T15:04:41.838Z,96481.25
2022-08-20T15:07:16.301Z,96485.72
2022-08-20T15:09:44.664Z,96481.53
2022-08-20T15:12:14.693Z,96483.25
2022-08-20T15:14:45.114Z,96489.25
2022-08-20T15:17:20.604Z,96481.59
2022-08-20T15:19:48.490Z,96477.06
2022-08-20T15:22:16.568Z,96479.66
2022-08-20T15:24:44.515Z,96481.72
2022-08-20T15:27:13.113Z,96478.44
2022-08-20T15:29:40.889Z,96470.84
2022-08-20T15:32:10.188Z,96473.25
2022-08-20T15:34:40.104Z,96471.50
2022-08-20T15:37:09.215Z,96472.47
2022-08-20T15:39:44.078Z,96471.59
2022-08-20T15:42:13.817Z,96469.84
2022-08-20T15:44:42.599Z,96474.75
2022-08-20T15:47:20.568Z,96467.06
2022-08-20T15:49:49.118Z,96473.19
2022-08-20T15:52:16.884Z,96476.16
2022-08-20T15:54:44.852Z,96472.16
2022-08-20T15:57:17.407Z,96477.38
2022-08-20T15:59:49.281Z,96478.16
2022-08-20T16:02:32.885Z,96469.66
2022-08-20T16:05:05.545Z,96484.59
2022-08-20T16:07:34.857Z,96490.22
2022-08-20T16:10:04.135Z,96491.41
2022-08-20T16:12:33.227Z,96269.88
2022-08-20T16:15:02.859Z,96502.94
2022-08-20T16:17:34.743Z,96496.34
2022-08-20T16:20:03.916Z,96499.66
2022-08-20T16:22:32.322Z,96294.22
2022-08-20T16:25:00.401Z,96498.78
2022-08-20T16:27:29.910Z,96504.03
2022-08-20T16:29:58.901Z,96504.66
2022-08-20T16:32:41.796Z,96502.88
2022-08-20T16:35:26.312Z,96502.34
2022-08-20T16:38:00.101Z,96503.00
2022-08-20T16:40:28.656Z,96502.06
2022-08-20T16:42:58.509Z,96500.69
2022-08-20T16:45:30.221Z,96510.38
2022-08-20T16:48:00.079Z,96509.06
2022-08-20T16:50:30.488Z,96505.91
2022-08-20T16:52:58.657Z,96512.66
2022-08-20T16:55:29.014Z,96514.06
2022-08-20T16:57:59.363Z,96513.75
2022-08-20T17:00:35.100Z,96511.69
2022-08-20T17:03:03.696Z,96509.06
2022-08-20T17:05:44.992Z,96505.25
2022-08-20T17:08:17.176Z,96514.47
2022-08-20T17:11:08.901Z,96506.91
2022-08-20T17:13:37.663Z,96512.00
2022-08-20T17:16:06.491Z,96507.63
2022-08-20T17:18:36.078Z,96511.97
2022-08-20T17:21:06.393Z,96511.94
2022-08-20T17:23:54.635Z,96506.34
2022-08-20T17:26:25.096Z,96515.59
2022-08-20T17:28:54.595Z,96520.00
2022-08-20T17:31:38.650Z,96518.16
2022-08-20T17:34:06.926Z,96523.44
2022-08-20T17:36:36.812Z,96512.50
2022-08-20T17:39:08.302Z,96522.06
2022-08-20T17:41:36.904Z,96514.84
2022-08-20T17:44:06.149Z,96524.59
2022-08-20T17:46:35.168Z,96524.59
2022-08-20T17:49:03.621Z,96521.44
2022-08-20T17:51:32.212Z,96529.06
2022-08-20T17:54:05.647Z,96525.72
2022-08-20T17:56:39.497Z,96528.44
2022-08-20T17:59:10.262Z,96530.59
2022-08-20T18:01:38.568Z,96537.75
2022-08-20T18:04:09.314Z,96534.91
2022-08-20T18:06:38.778Z,96535.41
2022-08-20T18:09:10.711Z,96530.69
2022-08-20T18:11:41.670Z,96539.19
2022-08-20T18:14:19.109Z,96541.09
2022-08-20T18:16:53.857Z,96548.16
2022-08-20T18:19:26.050Z,96540.06
2022-08-20T18:21:57.040Z,96542.13
2022-08-20T18:24:33.350Z,96544.97
2022-08-20T18:27:09.021Z,96540.34
2022-08-20T18:29:37.985Z,96545.28
2022-08-20T18:32:06.252Z,96550.84
2022-08-20T18:34:38.896Z,96550.28
2022-08-20T18:37:07.866Z,96547.09
2022-08-20T18:39:37.842Z,96548.22
2022-08-20T18:42:06.812Z,96543.53
2022-08-20T18:44:41.125Z,96545.91
2022-08-20T18:47:20.865Z,96553.16
2022-08-20T18:49:49.805Z,96555.28
2022-08-20T18:52:17.722Z,96556.88
2022-08-20T18:54:52.779Z,96561.56
2022-08-20T18:57:21.137Z,96560.16
2022-08-20T18:59:49.539Z,96563.16
2022-08-20T19:02:18.839Z,96560.69
2022-08-20T19:04:52.805Z,96561.38
2022-08-20T19:07:27.415Z,96563.28
2022-08-20T19:10:28.204Z,96564.09
2022-08-20T19:13:19.952Z,96571.84
2022-08-20T19:15:49.194Z,96576.22
2022-08-20T19:18:21.283Z,96581.38
2022-08-20T19:20:51.234Z,96586.53
2022-08-20T19:23:22.357Z,96583.53
2022-08-20T19:25:56.093Z,96595.28
2022-08-20T19:28:24.932Z,96590.22
2022-08-20T19:30:52.824Z,96591.94
2022-08-20T19:33:29.862Z,96586.19
2022-08-20T19:36:11.510Z,96590.38
2022-08-20T19:38:43.674Z,96588.59
2022-08-20T19:41:13.182Z,96583.53
2022-08-20T19:43:47.921Z,96581.53
2022-08-20T19:46:20.697Z,96572.53
2022-08-20T19:48:54.028Z,96574.88
2022-08-20T19:51:24.160Z,96570.28
2022-08-20T19:53:52.393Z,96571.28
2022-08-20T19:56:23.541Z,96579.88
2022-08-20T19:59:03.261Z,96575.53
2022-08-20T20:01:31.495Z,96573.19
2022-08-20T20:04:00.362Z,96576.34
2022-08-20T20:06:28.873Z,96579.16
2022-08-20T20:08:57.790Z,96581.06
2022-08-20T20:11:33.566Z,96579.91
2022-08-20T20:14:04.622Z,96581.41
2022-08-20T20:16:32.915Z,96579.34
2022-08-20T20:19:27.191Z,96590.28
2022-08-20T20:22:02.644Z,96589.47
2022-08-20T20:24:32.604Z,96589.88
2022-08-20T20:27:02.110Z,96579.44
2022-08-20T20:29:33.961Z,96584.84
2022-08-20T20:32:01.959Z,96585.41
2022-08-20T20:34:33.476Z,96582.97
2022-08-20T20:37:06.074Z,96581.94
2022-08-20T20:39:34.561Z,96577.72
2022-08-20T20:42:09.865Z,96583.38
2022-08-20T20:44:38.263Z,96580.72
2022-08-20T20:47:07.324Z,96583.56
2022-08-20T20:49:50.082Z,96576.00
2022-08-20T20:52:21.828Z,96573.25
2022-08-20T20:55:07.549Z,96568.22
2022-08-20T20:57:39.102Z,96570.28
2022-08-20T21:00:11.891Z,96569.75
2022-08-20T21:02:39.917Z,96568.13
2022-08-20T21:05:07.912Z,96563.50
2022-08-20T21:07:37.509Z,96569.22
2022-08-20T21:10:05.971Z,96572.06
2022-08-20T21:12:33.985Z,96580.16
2022-08-20T21:15:04.386Z,96572.78
2022-08-20T21:17:35.206Z,96582.38
2022-08-20T21:20:09.115Z,96581.81
2022-08-20T21:22:40.946Z,96578.16
2022-08-20T21:25:09.477Z,96576.78
2022-08-20T21:27:37.209Z,96571.91
2022-08-20T21:30:09.170Z,96576.53
2022-08-20T21:32:37.065Z,96578.25
2022-08-20T21:35:05.184Z,96577.50
2022-08-20T21:37:32.891Z,96586.59
2022-08-20T21:40:00.906Z,96576.06
2022-08-20T21:42:37.090Z,96572.81
2022-08-20T21:45:10.400Z,96577.69
2022-08-20T21:47:38.783Z,96574.75
2022-08-20T21:50:08.354Z,96576.06
2022-08-20T21:52:37.948Z,96577.91
2022-08-20T21:55:12.035Z,96577.28
2022-08-20T21:57:40.781Z,96582.28
2022-08-20T22:00:21.322Z,96583.78
2022-08-20T22:02:51.094Z,96584.41
2022-08-20T22:05:20.814Z,96577.97
2022-08-20T22:07:48.452Z,96579.03
2022-08-20T22:10:16.114Z,96587.00
2022-08-20T22:12:46.753Z,96592.69
2022-08-20T22:15:20.430Z,96592.81
2022-08-20T22:17:56.206Z,96595.47
2022-08-20T22:20:26.236Z,96594.00
2022-08-20T22:22:53.916Z,96595.41
2022-08-20T22:25:26.738Z,96603.22
2022-08-20T22:28:10.907Z,96597.84
2022-08-20T22:30:44.261Z,96601.84
2022-08-20T22:33:12.974Z,96600.41
2022-08-20T22:35:41.900Z,96596.75
2022-08-20T22:38:09.639Z,96594.56
2022-08-20T22:40:37.356Z,96603.41
2022-08-20T22:43:05.048Z,96595.31
2022-08-20T22:45:33.932Z,96594.66
2022-08-20T22:48:04.455Z,96601.31
2022-08-20T22:50:32.307Z,96596.38
2022-08-20T22:53:00.212Z,96598.88
2022-08-20T22:55:29.103Z,96597.34
2022-08-20T22:57:57.077Z,96607.19
2022-08-20T23:00:24.819Z,96601.66
2022-08-20T23:02:52.803Z,96606.41
2022-08-20T23:05:23.106Z,96600.88
2022-08-20T23:07:54.120Z,96596.28
2022-08-20T23:10:24.953Z,96588.66
2022-08-20T23:12:53.826Z,96593.69
2022-08-20T23:15:21.761Z,96595.63
2022-08-20T23:17:51.973Z,96593.38
2022-08-20T23:20:22.966Z,96604.53
2022-08-20T23:22:52.246Z,96593.03
2022-08-20T23:25:25.185Z,96596.09
2022-08-20T23:27:55.965Z,96595.66
2022-08-20T23:30:35.181Z,96605.91
2022-08-20T23:33:04.530Z,96604.00
2022-08-20T23:35:33.094Z,96598.97
2022-08-20T23:38:03.503Z,96602.94
2022-08-20T23:40:31.703Z,96601.69
2022-08-20T23:43:02.426Z,96600.50
2022-08-20T23:45:31.268Z,96598.16
2022-08-20T23:47:58.986Z,96594.69
2022-08-20T23:50:31.478Z,96596.94
2022-08-20T23:53:02.720Z,96595.22
2022-08-20T23:55:32.531Z,96594.22
2022-08-20T23:58:00.189Z,96594.22
